Time;durP1;ratioP1;P1;durP2;ratioP2;P2;SDS_P1;SDS_P2;PMS_P1;PMS_P2;Temp;Humidity;BMP_temperature;BMP_pressure;BME280_temperature;BME280_humidity;BME280_pressure;Samples;Min_cycle;Max_cycle;Signal;HPM_P1;HPM_P2
2021/10/13 00:02:14;;;;;;;6.97;4.85;;;;;;;5.01;nan;100975.97;5015361;28;20038;-87
2021/10/13 00:04:39;;;;;;;6.45;4.70;;;;;;;5.01;nan;100984.66;5012654;28;20038;-87
2021/10/13 00:07:05;;;;;;;7.50;4.57;;;;;;;4.97;nan;100983.19;5014106;28;20128;-86
2021/10/13 00:09:30;;;;;;;6.47;4.82;;;;;;;4.92;nan;100982.66;5013261;28;20122;-87
2021/10/13 00:11:55;;;;;;;7.80;4.63;;;;;;;4.91;nan;100978.38;5014594;28;20056;-86
2021/10/13 00:14:21;;;;;;;5.55;4.35;;;;;;;4.89;nan;100978.47;5012451;28;20292;-86
2021/10/13 00:17:02;;;;;;;5.88;4.15;;;;;;;4.84;nan;100974.50;5018296;28;20037;-85
2021/10/13 00:19:29;;;;;;;5.10;3.95;;;;;;;4.82;nan;100981.63;5024399;28;20037;-85
2021/10/13 00:21:54;;;;;;;5.85;4.32;;;;;;;4.83;nan;100976.25;5025031;28;20034;-86
2021/10/13 00:24:20;;;;;;;6.43;4.53;;;;;;;4.79;nan;100977.44;5017588;28;20060;-85
2021/10/13 00:26:45;;;;;;;6.43;4.88;;;;;;;4.77;nan;100987.16;5024973;28;20034;-86
2021/10/13 00:29:11;;;;;;;5.00;4.10;;;;;;;4.72;nan;100975.31;5024437;28;20050;-85
2021/10/13 00:31:36;;;;;;;8.10;4.70;;;;;;;4.73;nan;100977.00;5023103;28;20134;-85
2021/10/13 00:34:02;;;;;;;5.72;4.20;;;;;;;4.73;nan;100985.69;5022024;28;20048;-86
2021/10/13 00:36:27;;;;;;;6.93;4.63;;;;;;;4.73;nan;100990.94;5022469;28;20044;-85
2021/10/13 00:38:52;;;;;;;7.03;4.95;;;;;;;4.78;nan;101003.72;5022054;28;20069;-85
2021/10/13 00:41:18;;;;;;;6.18;4.55;;;;;;;4.76;nan;101013.47;5011950;28;20077;-86
2021/10/13 00:43:43;;;;;;;6.43;4.63;;;;;;;4.74;nan;101005.69;5013302;28;20411;-84
2021/10/13 00:46:09;;;;;;;7.50;5.30;;;;;;;4.75;nan;101015.25;5010775;28;20060;-85
2021/10/13 00:48:34;;;;;;;6.05;4.63;;;;;;;4.74;nan;101015.34;5017047;28;20103;-86
2021/10/13 00:51:00;;;;;;;6.30;4.85;;;;;;;4.66;nan;101027.16;5012681;28;20100;-85
2021/10/13 00:53:26;;;;;;;6.10;4.30;;;;;;;4.64;nan;101025.59;5011805;28;20041;-85
2021/10/13 00:55:52;;;;;;;6.10;4.68;;;;;;;4.64;nan;101036.06;5011534;28;20042;-84
2021/10/13 00:58:18;;;;;;;6.30;4.85;;;;;;;4.61;nan;101031.03;4995377;28;20089;-84
2021/10/13 01:00:46;;;;;;;7.55;4.78;;;;;;;4.62;nan;101025.72;5011419;28;20459;-84
2021/10/13 01:03:35;;;;;;;6.72;4.82;;;;;;;4.60;nan;101030.22;5012257;28;20100;-87
2021/10/13 01:06:23;;;;;;;6.70;5.05;;;;;;;4.55;nan;101039.28;4999052;28;20038;-86
2021/10/13 01:09:04;;;;;;;6.93;4.65;;;;;;;4.52;nan;101048.19;4993420;28;20631;-85
2021/10/13 01:11:56;;;;;;;6.18;4.28;;;;;;;4.52;nan;101052.59;5009104;28;20042;-86
2021/10/13 01:14:44;;;;;;;6.65;4.50;;;;;;;4.51;nan;101050.94;5013099;28;20496;-85
2021/10/13 01:17:19;;;;;;;6.38;4.45;;;;;;;4.43;nan;101060.13;5002132;28;20035;-84
2021/10/13 01:19:44;;;;;;;6.90;4.55;;;;;;;4.38;nan;101056.94;5003991;28;20109;-85
2021/10/13 01:22:12;;;;;;;6.90;4.73;;;;;;;4.38;nan;101062.16;5011582;28;20084;-87
2021/10/13 01:24:55;;;;;;;6.32;4.40;;;;;;;4.36;nan;101064.06;5009283;28;20813;-87
2021/10/13 01:27:49;;;;;;;7.20;4.28;;;;;;;4.27;nan;101064.66;5001455;28;20126;-87
2021/10/13 01:30:17;;;;;;;7.50;4.70;;;;;;;4.28;nan;101068.94;5033309;28;20461;-87
2021/10/13 01:32:47;;;;;;;6.50;4.82;;;;;;;4.25;nan;101074.38;5026649;28;20030;-87
2021/10/13 01:35:16;;;;;;;5.77;3.93;;;;;;;4.29;nan;101081.09;5028525;28;20030;-87
2021/10/13 01:37:52;;;;;;;6.78;4.25;;;;;;;4.24;nan;101075.28;5011645;28;20293;-86
2021/10/13 01:40:19;;;;;;;5.63;4.07;;;;;;;4.20;nan;101071.22;5009373;28;20034;-87
2021/10/13 01:42:49;;;;;;;5.07;3.75;;;;;;;4.20;nan;101068.59;5010639;28;20057;-87
2021/10/13 01:45:16;;;;;;;5.18;3.88;;;;;;;4.17;nan;101076.63;5011023;28;20038;-87
2021/10/13 01:47:45;;;;;;;5.57;3.53;;;;;;;4.16;nan;101078.41;5010210;28;20041;-86
2021/10/13 01:50:12;;;;;;;6.82;3.70;;;;;;;4.10;nan;101081.44;5009706;28;20573;-89
2021/10/13 01:52:39;;;;;;;5.88;3.75;;;;;;;4.10;nan;101084.03;5011314;28;20041;-87
2021/10/13 01:55:06;;;;;;;4.63;3.33;;;;;;;4.06;nan;101074.69;5011230;28;20207;-86
2021/10/13 01:57:32;;;;;;;4.60;3.55;;;;;;;4.06;nan;101081.72;5011599;28;20042;-86
2021/10/13 02:00:07;;;;;;;5.55;4.00;;;;;;;3.95;nan;101077.97;5012270;28;20030;-86
2021/10/13 02:02:36;;;;;;;7.13;4.18;;;;;;;3.97;nan;101091.81;5008086;28;20408;-87
2021/10/13 02:05:04;;;;;;;5.50;3.85;;;;;;;3.97;nan;101080.50;5008377;28;20105;-87
2021/10/13 02:07:31;;;;;;;8.85;4.15;;;;;;;3.99;nan;101089.94;5009477;28;20030;-85
2021/10/13 02:10:02;;;;;;;5.13;3.65;;;;;;;4.01;nan;101102.94;5011309;28;20034;-86
2021/10/13 02:12:31;;;;;;;5.70;3.78;;;;;;;4.01;nan;101101.16;5008564;28;20038;-85
2021/10/13 02:14:59;;;;;;;4.65;3.13;;;;;;;4.01;nan;101100.31;5010518;28;20073;-87
2021/10/13 02:17:24;;;;;;;5.15;3.67;;;;;;;4.15;nan;101113.38;5010815;28;20037;-86
2021/10/13 02:19:52;;;;;;;6.20;3.70;;;;;;;4.16;nan;101109.81;5009747;28;20034;-86
2021/10/13 02:22:18;;;;;;;5.13;3.60;;;;;;;4.10;nan;101096.25;5010336;28;20038;-88
2021/10/13 02:24:51;;;;;;;4.53;3.42;;;;;;;4.11;nan;101097.97;5009030;28;20062;-86
2021/10/13 02:27:31;;;;;;;5.03;3.60;;;;;;;4.01;nan;101105.56;5010888;28;20100;-85
2021/10/13 02:29:57;;;;;;;5.40;3.30;;;;;;;4.05;nan;101101.78;5009251;28;20034;-87
2021/10/13 02:32:22;;;;;;;5.00;3.13;;;;;;;4.03;nan;101104.50;5009588;28;20041;-83
2021/10/13 02:34:48;;;;;;;4.95;3.58;;;;;;;4.07;nan;101102.53;5014671;28;20045;-86
2021/10/13 02:37:14;;;;;;;6.15;3.45;;;;;;;4.06;nan;101100.03;5009200;28;20514;-85
2021/10/13 02:39:39;;;;;;;5.40;3.72;;;;;;;3.98;nan;101085.66;5009733;28;20439;-86
2021/10/13 02:42:05;;;;;;;4.63;3.20;;;;;;;3.90;nan;101092.28;5014767;28;20114;-86
2021/10/13 02:44:30;;;;;;;4.38;3.42;;;;;;;3.88;nan;101108.06;5016071;28;20092;-86
2021/10/13 02:47:03;;;;;;;4.65;3.40;;;;;;;3.88;nan;101108.06;5014049;28;20034;-86
2021/10/13 02:50:07;;;;;;;5.68;3.30;;;;;;;3.85;nan;101110.03;5014308;28;20037;-86
2021/10/13 02:52:51;;;;;;;4.53;3.53;;;;;;;3.92;nan;101111.34;5010769;28;20042;-86
2021/10/13 02:55:28;;;;;;;5.03;3.30;;;;;;;3.92;nan;101106.94;5007824;28;20041;-86
2021/10/13 02:58:22;;;;;;;4.60;3.40;;;;;;;4.02;nan;101112.44;5012314;28;20049;-86
2021/10/13 03:00:51;;;;;;;4.85;3.40;;;;;;;3.95;nan;101111.16;4991579;28;20061;-86
2021/10/13 03:03:35;;;;;;;5.32;3.50;;;;;;;3.86;nan;101117.78;5011533;28;20046;-86
2021/10/13 03:06:04;;;;;;;5.15;3.53;;;;;;;3.83;nan;101116.19;4992344;28;20061;-86
2021/10/13 03:08:34;;;;;;;4.90;3.35;;;;;;;3.82;nan;101111.91;5009145;28;20402;-85
2021/10/13 03:11:02;;;;;;;6.55;3.30;;;;;;;3.86;nan;101125.63;5009100;28;20030;-86
2021/10/13 03:13:33;;;;;;;4.88;3.38;;;;;;;3.86;nan;101124.78;5005213;28;20034;-87
2021/10/13 03:16:03;;;;;;;4.80;3.55;;;;;;;3.85;nan;101123.97;5008710;28;20026;-87
2021/10/13 03:18:30;;;;;;;7.38;3.78;;;;;;;3.92;nan;101127.88;5006250;28;20037;-87
2021/10/13 03:20:57;;;;;;;4.88;3.22;;;;;;;3.92;nan;101124.44;5008344;28;20100;-86
2021/10/13 03:23:24;;;;;;;4.28;3.30;;;;;;;3.90;nan;101121.06;5009133;28;20042;-86
2021/10/13 03:25:51;;;;;;;4.15;3.13;;;;;;;3.97;nan;101117.97;5008186;28;20046;-87
2021/10/13 03:28:16;;;;;;;6.25;3.95;;;;;;;4.06;nan;101111.34;5007625;28;20042;-86
2021/10/13 03:30:44;;;;;;;5.85;3.92;;;;;;;4.07;nan;101120.03;5008805;28;20072;-86
2021/10/13 03:33:10;;;;;;;6.60;4.03;;;;;;;4.02;nan;101134.22;5008510;28;20068;-87
2021/10/13 03:35:35;;;;;;;8.15;4.00;;;;;;;4.02;nan;101122.91;5006916;28;20037;-87
2021/10/13 03:38:02;;;;;;;5.32;3.67;;;;;;;4.07;nan;101143.56;5009186;28;20037;-87
2021/10/13 03:40:29;;;;;;;5.90;4.00;;;;;;;4.12;nan;101144.13;5007769;28;20045;-87
2021/10/13 03:42:55;;;;;;;6.13;4.20;;;;;;;4.16;nan;101150.84;5007764;28;20069;-87
2021/10/13 03:45:22;;;;;;;7.50;4.35;;;;;;;4.25;nan;101147.66;5007093;28;20053;-87
2021/10/13 03:47:48;;;;;;;5.38;3.92;;;;;;;4.23;nan;101162.63;5007097;28;20045;-86
2021/10/13 03:50:15;;;;;;;7.20;4.28;;;;;;;4.34;nan;101162.81;5006046;28;20122;-85
2021/10/13 03:52:41;;;;;;;4.50;3.30;;;;;;;4.42;nan;101165.78;5007662;28;20428;-87
2021/10/13 03:55:09;;;;;;;5.78;3.90;;;;;;;4.51;nan;101168.78;5008443;28;20033;-87
2021/10/13 03:57:35;;;;;;;6.88;4.00;;;;;;;4.50;nan;101178.38;5002230;28;20396;-87
2021/10/13 04:00:01;;;;;;;5.80;3.80;;;;;;;4.51;nan;101169.59;5007288;28;20042;-87
2021/10/13 04:02:26;;;;;;;7.10;3.95;;;;;;;4.55;nan;101167.63;4997500;28;20125;-86
2021/10/13 04:04:52;;;;;;;5.65;4.15;;;;;;;4.53;nan;101174.72;5004401;28;20579;-85
2021/10/13 04:07:17;;;;;;;5.78;3.95;;;;;;;4.53;nan;101180.84;5007696;28;20116;-87
2021/10/13 04:09:43;;;;;;;5.75;3.70;;;;;;;4.64;nan;101183.59;5017898;28;20030;-87
2021/10/13 04:12:08;;;;;;;4.63;3.60;;;;;;;4.61;nan;101190.81;5019374;28;20033;-86
2021/10/13 04:14:34;;;;;;;5.03;3.53;;;;;;;4.71;nan;101191.91;5009491;28;20030;-87
2021/10/13 04:16:59;;;;;;;5.22;3.40;;;;;;;4.72;nan;101195.34;5008050;28;20053;-87
2021/10/13 04:19:24;;;;;;;6.20;3.83;;;;;;;4.71;nan;101196.31;5008904;28;20049;-85
2021/10/13 04:21:50;;;;;;;6.85;3.97;;;;;;;4.80;nan;101203.59;5015170;28;20153;-85
2021/10/13 04:24:16;;;;;;;5.25;3.70;;;;;;;4.87;nan;101197.84;5013717;28;20037;-83
2021/10/13 04:26:41;;;;;;;5.55;3.70;;;;;;;4.84;nan;101191.97;5016086;28;20061;-85
2021/10/13 04:29:06;;;;;;;9.18;4.95;;;;;;;4.80;nan;101199.19;5014161;28;20373;-86
2021/10/13 04:31:32;;;;;;;6.53;4.38;;;;;;;4.74;nan;101196.94;5004093;28;20127;-85
2021/10/13 04:33:57;;;;;;;7.22;4.15;;;;;;;4.84;nan;101205.91;5026125;28;20033;-85
2021/10/13 04:36:22;;;;;;;5.32;3.88;;;;;;;4.92;nan;101213.28;5011880;28;20038;-86
2021/10/13 04:38:48;;;;;;;5.32;3.85;;;;;;;4.90;nan;101204.69;5011882;28;20053;-86
2021/10/13 04:41:13;;;;;;;4.88;4.05;;;;;;;4.93;nan;101209.72;5009472;28;20041;-84
2021/10/13 04:43:39;;;;;;;6.38;4.25;;;;;;;5.00;nan;101199.69;5007107;28;20062;-87
2021/10/13 04:46:04;;;;;;;7.90;3.90;;;;;;;4.97;nan;101200.72;5009152;28;20088;-87
2021/10/13 04:48:29;;;;;;;5.35;4.07;;;;;;;5.02;nan;101203.03;5015905;28;20049;-86
2021/10/13 04:50:55;;;;;;;4.68;3.40;;;;;;;5.09;nan;101202.53;5011310;28;20674;-86
2021/10/13 04:53:20;;;;;;;5.00;3.50;;;;;;;5.13;nan;101213.69;5011230;28;20092;-86
2021/10/13 04:55:46;;;;;;;5.22;3.72;;;;;;;5.14;nan;101202.25;5011264;28;20392;-86
2021/10/13 04:58:11;;;;;;;4.90;3.33;;;;;;;5.15;nan;101209.19;5010995;28;20030;-86
2021/10/13 05:00:36;;;;;;;5.63;4.07;;;;;;;5.11;nan;101207.69;5011396;28;20034;-86
2021/10/13 05:03:02;;;;;;;4.47;3.25;;;;;;;5.12;nan;101209.38;5010465;28;20038;-85
2021/10/13 05:05:27;;;;;;;4.30;3.28;;;;;;;5.06;nan;101209.78;5010867;28;20033;-85
2021/10/13 05:07:53;;;;;;;6.00;3.45;;;;;;;4.95;nan;101210.47;5011284;28;20034;-86
2021/10/13 05:10:18;;;;;;;4.20;3.38;;;;;;;4.92;nan;101215.06;5012187;28;20056;-85
2021/10/13 05:12:43;;;;;;;4.95;3.45;;;;;;;4.84;nan;101220.81;5012401;28;20044;-86
2021/10/13 05:15:09;;;;;;;4.25;3.20;;;;;;;4.81;nan;101226.22;5026861;28;20076;-85
2021/10/13 05:17:34;;;;;;;4.10;3.15;;;;;;;4.72;nan;101218.94;5029067;28;20033;-85
2021/10/13 05:20:00;;;;;;;4.75;3.20;;;;;;;4.77;nan;101219.50;5026993;28;20045;-86
2021/10/13 05:22:25;;;;;;;4.35;3.20;;;;;;;4.78;nan;101234.28;5010668;28;20034;-84
2021/10/13 05:24:50;;;;;;;5.20;3.80;;;;;;;4.73;nan;101231.94;5009440;28;20519;-86
2021/10/13 05:27:16;;;;;;;4.35;3.08;;;;;;;4.77;nan;101230.81;5004796;28;20021;-85
2021/10/13 05:29:41;;;;;;;4.93;3.00;;;;;;;4.77;nan;101237.84;5027702;28;20034;-84
2021/10/13 05:32:07;;;;;;;5.53;3.63;;;;;;;4.88;nan;101245.84;5011860;28;20046;-86
2021/10/13 05:34:33;;;;;;;4.82;3.28;;;;;;;4.83;nan;101246.13;5022655;28;20038;-86
2021/10/13 05:36:59;;;;;;;6.32;3.60;;;;;;;4.81;nan;101258.50;5012884;28;20045;-86
2021/10/13 05:39:26;;;;;;;6.32;4.00;;;;;;;4.85;nan;101259.16;5009884;28;20546;-85
2021/10/13 05:41:51;;;;;;;5.05;3.75;;;;;;;4.83;nan;101261.03;5012784;28;20061;-86
2021/10/13 05:44:16;;;;;;;6.85;4.10;;;;;;;4.95;nan;101259.41;5011624;28;20062;-85
2021/10/13 05:46:42;;;;;;;4.50;3.17;;;;;;;4.93;nan;101264.75;5012695;28;20121;-86
2021/10/13 05:49:07;;;;;;;5.50;3.85;;;;;;;4.87;nan;101273.84;5018413;28;20740;-85
2021/10/13 05:51:32;;;;;;;6.47;3.90;;;;;;;4.98;nan;101270.56;5012537;28;20025;-86
2021/10/13 05:53:57;;;;;;;4.28;3.38;;;;;;;4.97;nan;101278.50;5011992;28;20038;-86
2021/10/13 05:56:23;;;;;;;6.20;3.72;;;;;;;4.96;nan;101282.91;5012887;28;20093;-85
2021/10/13 05:58:52;;;;;;;4.95;3.30;;;;;;;4.99;nan;101290.56;5013660;28;20042;-85
2021/10/13 06:01:19;;;;;;;6.85;3.10;;;;;;;5.12;nan;101290.63;5013829;28;20454;-85
2021/10/13 06:03:44;;;;;;;5.05;3.40;;;;;;;5.25;nan;101293.31;5023108;28;20037;-85
2021/10/13 06:06:10;;;;;;;5.28;3.45;;;;;;;5.28;nan;101307.06;5009713;28;20444;-86
2021/10/13 06:08:35;;;;;;;4.72;3.38;;;;;;;5.32;nan;101305.09;5010085;28;20350;-85
2021/10/13 06:11:00;;;;;;;7.00;3.60;;;;;;;5.35;nan;101302.28;5010551;28;20034;-85
2021/10/13 06:13:26;;;;;;;5.47;3.33;;;;;;;5.42;nan;101305.34;5005452;28;20034;-85
2021/10/13 06:15:53;;;;;;;4.00;3.30;;;;;;;5.48;nan;101305.81;5008630;28;20044;-84
2021/10/13 06:18:18;;;;;;;6.13;3.95;;;;;;;5.54;nan;101307.16;5016078;28;20038;-85
2021/10/13 06:20:44;;;;;;;4.35;3.30;;;;;;;5.67;nan;101305.44;5010898;28;20053;-84
2021/10/13 06:23:09;;;;;;;6.45;3.53;;;;;;;5.74;nan;101313.72;5020281;28;20626;-84
2021/10/13 06:25:34;;;;;;;5.72;3.60;;;;;;;5.81;nan;101314.16;5021193;28;20036;-85
2021/10/13 06:28:00;;;;;;;5.15;3.30;;;;;;;5.90;nan;101306.53;5026593;28;20081;-85
2021/10/13 06:30:28;;;;;;;5.07;3.70;;;;;;;5.98;nan;101308.66;5009246;28;20049;-85
2021/10/13 06:32:54;;;;;;;4.88;3.70;;;;;;;6.01;nan;101311.09;5012599;28;20086;-85
2021/10/13 06:35:19;;;;;;;5.38;3.50;;;;;;;6.16;nan;101307.44;5011542;28;20310;-85
2021/10/13 06:37:46;;;;;;;6.07;3.70;;;;;;;6.26;nan;101322.56;5019764;28;20404;-85
2021/10/13 06:40:12;;;;;;;5.43;3.80;;;;;;;6.38;nan;101326.97;5009132;28;20041;-85
2021/10/13 06:42:41;;;;;;;5.57;3.90;;;;;;;6.51;nan;101324.38;5019165;28;20447;-86
2021/10/13 06:45:08;;;;;;;5.38;3.83;;;;;;;6.57;nan;101316.88;5004874;28;20172;-85
2021/10/13 06:47:33;;;;;;;6.45;4.20;;;;;;;6.52;nan;101315.53;5011964;28;20400;-85
2021/10/13 06:50:00;;;;;;;6.47;4.03;;;;;;;6.50;nan;101320.03;5016583;28;20036;-84
2021/10/13 06:52:25;;;;;;;6.07;3.95;;;;;;;6.50;nan;101327.91;5018490;28;20042;-84
2021/10/13 06:54:51;;;;;;;6.00;4.30;;;;;;;6.53;nan;101323.31;5010618;28;20034;-85
2021/10/13 06:57:16;;;;;;;6.38;4.60;;;;;;;6.56;nan;101330.97;5020821;28;20546;-86
2021/10/13 06:59:42;;;;;;;5.97;4.20;;;;;;;6.65;nan;101345.28;5020845;28;20045;-85
2021/10/13 07:02:07;;;;;;;5.63;4.28;;;;;;;6.67;nan;101335.47;5017984;28;20065;-85
2021/10/13 07:04:34;;;;;;;6.40;4.30;;;;;;;6.80;nan;101348.63;5020774;28;20045;-84
2021/10/13 07:06:59;;;;;;;8.82;5.57;;;;;;;6.95;nan;101350.16;5020690;28;20307;-85
2021/10/13 07:09:25;;;;;;;9.80;5.93;;;;;;;6.95;nan;101344.06;5020680;28;20614;-85
2021/10/13 07:11:50;;;;;;;8.90;6.03;;;;;;;6.96;nan;101351.00;5022820;28;20108;-85
2021/10/13 07:14:17;;;;;;;9.52;6.22;;;;;;;6.89;nan;101344.47;5028496;28;20042;-85
2021/10/13 07:16:43;;;;;;;8.85;5.57;;;;;;;6.95;nan;101349.31;5022140;28;20037;-85
2021/10/13 07:19:08;;;;;;;7.53;5.28;;;;;;;6.97;nan;101357.94;5027053;28;20411;-86
2021/10/13 07:21:34;;;;;;;7.95;5.47;;;;;;;7.00;nan;101363.81;5021463;28;20081;-86
2021/10/13 07:24:00;;;;;;;9.82;6.82;;;;;;;7.07;nan;101358.97;5030077;28;20504;-85
2021/10/13 07:26:26;;;;;;;8.52;6.07;;;;;;;7.14;nan;101351.50;5029062;28;20057;-86
2021/10/13 07:28:51;;;;;;;12.00;7.18;;;;;;;7.33;nan;101359.75;5022402;28;20058;-85
2021/10/13 07:31:17;;;;;;;12.18;6.93;;;;;;;7.27;nan;101354.94;5022065;28;20112;-85
2021/10/13 07:33:42;;;;;;;8.60;6.30;;;;;;;7.39;nan;101358.47;5028851;28;20069;-85
2021/10/13 07:36:07;;;;;;;8.90;6.72;;;;;;;7.55;nan;101360.81;5020323;28;20040;-87
2021/10/13 07:38:33;;;;;;;10.65;7.05;;;;;;;7.73;nan;101367.38;5020747;28;20041;-87
2021/10/13 07:41:02;;;;;;;8.52;5.97;;;;;;;7.91;nan;101361.69;5029941;28;20410;-85
2021/10/13 07:43:29;;;;;;;14.23;7.93;;;;;;;8.18;nan;101367.56;5023931;28;20038;-85
2021/10/13 07:45:54;;;;;;;13.70;9.48;;;;;;;8.29;nan;101366.72;5032193;28;20590;-85
2021/10/13 07:48:20;;;;;;;13.82;9.52;;;;;;;8.44;nan;101370.88;5031290;28;20053;-86
2021/10/13 07:50:46;;;;;;;17.40;10.68;;;;;;;8.53;nan;101379.03;5025421;28;20488;-87
2021/10/13 07:53:11;;;;;;;17.27;10.38;;;;;;;8.58;nan;101375.09;5022328;28;20065;-85
2021/10/13 07:55:37;;;;;;;18.75;10.80;;;;;;;8.67;nan;101379.63;5023627;28;20490;-87
2021/10/13 07:58:03;;;;;;;17.83;11.27;;;;;;;8.61;nan;101385.41;5028448;28;20050;-87
2021/10/13 08:00:28;;;;;;;17.17;10.95;;;;;;;8.54;nan;101389.47;5020004;28;20122;-85
2021/10/13 08:02:54;;;;;;;12.60;9.73;;;;;;;8.54;nan;101397.38;5020424;28;20038;-85
2021/10/13 08:05:19;;;;;;;16.38;10.48;;;;;;;8.68;nan;101381.34;5012855;28;20030;-85
2021/10/13 08:07:46;;;;;;;26.85;13.25;;;;;;;8.80;nan;101386.63;5013941;28;20036;-86
2021/10/13 08:10:11;;;;;;;15.40;10.80;;;;;;;8.68;nan;101380.50;5013011;28;20037;-85
2021/10/13 08:12:37;;;;;;;15.93;10.30;;;;;;;8.81;nan;101402.31;5013202;28;20029;-85
2021/10/13 08:15:03;;;;;;;16.95;9.73;;;;;;;8.92;nan;101398.84;5016731;28;20072;-85
2021/10/13 08:17:28;;;;;;;10.75;7.53;;;;;;;8.93;nan;101393.44;5027122;28;20048;-86
2021/10/13 08:19:54;;;;;;;15.13;9.68;;;;;;;9.13;nan;101399.81;5018469;28;20038;-85
2021/10/13 08:22:20;;;;;;;12.25;8.50;;;;;;;9.20;nan;101412.50;5015047;28;20077;-85
2021/10/13 08:24:45;;;;;;;16.90;10.57;;;;;;;9.01;nan;101419.25;5016662;28;20041;-85
2021/10/13 08:27:11;;;;;;;14.25;9.45;;;;;;;9.17;nan;101418.03;5016455;28;20091;-85
2021/10/13 08:29:36;;;;;;;21.42;12.13;;;;;;;9.33;nan;101421.13;5016012;28;20030;-85
2021/10/13 08:32:02;;;;;;;15.02;10.13;;;;;;;9.33;nan;101416.69;5016424;28;20049;-85
2021/10/13 08:34:28;;;;;;;12.93;9.02;;;;;;;9.25;nan;101413.84;5018118;28;20059;-86
2021/10/13 08:36:53;;;;;;;13.07;9.02;;;;;;;9.35;nan;101416.59;5016541;28;20589;-85
2021/10/13 08:39:19;;;;;;;14.63;10.43;;;;;;;9.17;nan;101407.47;5015426;28;20030;-85
2021/10/13 08:41:45;;;;;;;16.88;11.55;;;;;;;8.91;nan;101415.63;5015202;28;20046;-85
2021/10/13 08:44:15;;;;;;;17.63;11.50;;;;;;;8.83;nan;101418.03;5025246;28;20041;-86
2021/10/13 08:46:41;;;;;;;16.38;11.35;;;;;;;8.86;nan;101412.50;5034354;28;20057;-85
2021/10/13 08:49:06;;;;;;;14.40;10.32;;;;;;;8.99;nan;101413.25;5021855;28;20034;-85
2021/10/13 08:51:37;;;;;;;15.95;11.52;;;;;;;9.05;nan;101417.19;5015337;28;20037;-85
2021/10/13 08:54:13;;;;;;;12.53;9.77;;;;;;;9.18;nan;101417.91;5015791;28;20041;-86
2021/10/13 08:56:41;;;;;;;13.15;9.43;;;;;;;9.34;nan;101414.88;5018028;28;20281;-85
2021/10/13 08:59:06;;;;;;;14.75;10.18;;;;;;;9.31;nan;101409.88;5017298;28;20437;-85
2021/10/13 09:01:32;;;;;;;16.73;10.55;;;;;;;9.34;nan;101413.13;5016583;28;20034;-85
2021/10/13 09:04:01;;;;;;;20.92;13.18;;;;;;;9.34;nan;101417.53;5007399;28;20159;-85
2021/10/13 09:06:33;;;;;;;16.05;11.30;;;;;;;9.37;nan;101409.38;5006740;28;20477;-86
2021/10/13 09:09:11;;;;;;;19.67;12.85;;;;;;;9.40;nan;101416.22;5017955;28;20040;-86
2021/10/13 09:11:48;;;;;;;19.98;11.80;;;;;;;9.53;nan;101416.91;5014906;28;20115;-85
2021/10/13 09:14:25;;;;;;;19.00;11.70;;;;;;;9.55;nan;101422.91;5013814;28;20042;-86
2021/10/13 09:17:05;;;;;;;15.88;11.13;;;;;;;9.63;nan;101427.56;5017709;28;20125;-86
2021/10/13 09:19:33;;;;;;;16.48;11.57;;;;;;;9.65;nan;101429.13;5015154;28;20068;-86
2021/10/13 09:22:07;;;;;;;16.50;11.27;;;;;;;9.72;nan;101434.75;5014746;28;20030;-85
2021/10/13 09:24:46;;;;;;;18.25;11.02;;;;;;;9.83;nan;101434.72;5012675;28;20046;-87
2021/10/13 09:27:21;;;;;;;15.07;10.15;;;;;;;9.75;nan;101431.88;5012707;28;20049;-87
2021/10/13 09:29:58;;;;;;;15.73;11.30;;;;;;;9.71;nan;101433.06;5012495;28;20114;-87
2021/10/13 09:32:32;;;;;;;13.43;9.77;;;;;;;9.79;nan;101435.94;5016914;28;20041;-87
2021/10/13 09:34:58;;;;;;;16.92;10.85;;;;;;;9.76;nan;101433.53;5020528;28;20045;-87
2021/10/13 09:37:54;;;;;;;20.92;12.35;;;;;;;9.73;nan;101439.09;5019026;28;20121;-87
2021/10/13 09:40:29;;;;;;;18.67;12.60;;;;;;;9.39;nan;101428.59;5018395;28;20107;-87
2021/10/13 09:43:33;;;;;;;23.38;14.27;;;;;;;9.27;nan;101442.72;5013040;28;20033;-87
2021/10/13 09:46:30;;;;;;;;;;;;;;;;;;;;;
2021/10/13 09:48:59;;;;;;;24.42;14.25;;;;;;;8.91;nan;101439.34;5018185;28;20412;-88
2021/10/13 09:51:25;;;;;;;19.02;12.93;;;;;;;8.91;nan;101447.28;5017253;28;20072;-87
2021/10/13 09:54:08;;;;;;;13.50;10.02;;;;;;;8.97;nan;101436.25;5018510;28;20037;-87
2021/10/13 09:56:36;;;;;;;13.05;9.77;;;;;;;9.05;nan;101444.41;5002856;28;20510;-89
2021/10/13 09:59:22;;;;;;;18.85;12.70;;;;;;;8.94;nan;101447.06;5019648;28;20095;-89
2021/10/13 10:02:05;;;;;;;19.77;12.20;;;;;;;8.97;nan;101451.25;5023059;28;20073;-89
2021/10/13 10:04:34;;;;;;;18.48;11.00;;;;;;;8.96;nan;101437.19;5021371;28;20046;-88
2021/10/13 10:07:06;;;;;;;17.52;11.73;;;;;;;9.05;nan;101446.22;5021949;28;20034;-87
2021/10/13 10:09:32;;;;;;;18.92;12.35;;;;;;;9.07;nan;101444.31;5007077;28;20546;-87
2021/10/13 10:12:09;;;;;;;18.73;12.65;;;;;;;9.16;nan;101454.13;5021372;28;20042;-86
2021/10/13 10:14:40;;;;;;;17.67;12.13;;;;;;;9.27;nan;101448.00;5017612;28;20478;-86
2021/10/13 10:17:06;;;;;;;14.75;10.55;;;;;;;9.47;nan;101442.00;5023929;28;20060;-85
2021/10/13 10:19:43;;;;;;;16.77;11.48;;;;;;;9.66;nan;101438.72;5016667;28;20026;-86
2021/10/13 10:22:13;;;;;;;19.25;12.68;;;;;;;9.96;nan;101447.75;5018560;28;20088;-87
2021/10/13 10:24:50;;;;;;;15.07;10.07;;;;;;;10.15;nan;101444.44;5030183;28;20057;-86
2021/10/13 10:27:35;;;;;;;18.85;11.60;;;;;;;10.25;nan;101441.88;5035553;28;20120;-86
2021/10/13 10:30:09;;;;;;;17.90;12.10;;;;;;;10.25;nan;101448.03;5036885;28;20030;-85
2021/10/13 10:33:05;;;;;;;16.80;11.20;;;;;;;10.41;nan;101443.16;5031875;28;20037;-85
2021/10/13 10:35:41;;;;;;;16.77;11.93;;;;;;;10.52;nan;101441.44;5015650;28;20404;-86
2021/10/13 10:38:07;;;;;;;15.63;11.13;;;;;;;10.58;nan;101441.75;5016559;28;20044;-86
2021/10/13 10:40:36;;;;;;;14.90;9.80;;;;;;;10.80;nan;101446.06;5013146;28;20115;-85
2021/10/13 10:43:18;;;;;;;14.43;10.57;;;;;;;10.84;nan;101446.63;5015336;28;20304;-85
2021/10/13 10:45:54;;;;;;;15.48;10.23;;;;;;;10.86;nan;101434.13;5015340;28;20045;-85
2021/10/13 10:48:21;;;;;;;13.48;10.23;;;;;;;10.97;nan;101441.97;5016133;28;20097;-86
2021/10/13 10:50:52;;;;;;;14.88;9.73;;;;;;;10.97;nan;101446.44;5016891;28;20117;-85
2021/10/13 10:53:32;;;;;;;13.70;8.52;;;;;;;10.97;nan;101444.63;5017444;28;20065;-85
2021/10/13 10:56:24;;;;;;;10.23;7.78;;;;;;;10.88;nan;101441.94;5015244;28;20188;-86
2021/10/13 10:58:57;;;;;;;16.25;10.18;;;;;;;10.84;nan;101452.78;5018426;28;20038;-85
2021/10/13 11:01:22;;;;;;;15.90;10.45;;;;;;;10.74;nan;101446.56;5016302;28;20038;-86
2021/10/13 11:03:48;;;;;;;13.35;10.05;;;;;;;10.60;nan;101457.47;5013821;28;20037;-86
2021/10/13 11:06:29;;;;;;;15.35;9.85;;;;;;;10.34;nan;101457.03;5012118;28;20038;-86
2021/10/13 11:09:03;;;;;;;14.63;11.35;;;;;;;10.10;nan;101459.84;5013251;28;20446;-85
2021/10/13 11:11:42;;;;;;;15.80;10.73;;;;;;;10.16;nan;101451.44;5013135;28;20119;-84
2021/10/13 11:14:07;;;;;;;14.10;9.57;;;;;;;10.14;nan;101456.00;5011158;28;20036;-85
2021/10/13 11:16:35;;;;;;;12.60;8.50;;;;;;;10.23;nan;101457.88;5028656;28;20555;-85
2021/10/13 11:19:12;;;;;;;11.80;8.23;;;;;;;10.31;nan;101454.63;5014476;28;20040;-86
2021/10/13 11:21:39;;;;;;;14.40;9.35;;;;;;;10.49;nan;101460.22;5011594;28;20080;-86
2021/10/13 11:24:05;;;;;;;13.32;9.02;;;;;;;10.76;nan;101452.56;5012392;28;20042;-85
2021/10/13 11:26:31;;;;;;;11.52;8.38;;;;;;;10.86;nan;101450.00;5014067;28;20034;-85
2021/10/13 11:28:58;;;;;;;12.30;8.55;;;;;;;11.14;nan;101444.97;5012212;28;20534;-85
2021/10/13 11:31:23;;;;;;;12.25;8.82;;;;;;;11.27;nan;101440.28;5014097;28;20022;-87
2021/10/13 11:34:05;;;;;;;9.82;7.63;;;;;;;11.11;nan;101443.44;5031826;28;20033;-88
2021/10/13 11:36:30;;;;;;;10.85;6.68;;;;;;;10.80;nan;101445.25;5013823;28;20061;-84
2021/10/13 11:38:56;;;;;;;9.55;6.82;;;;;;;10.49;nan;101452.28;5012713;28;20038;-86
2021/10/13 11:41:21;;;;;;;11.95;7.70;;;;;;;10.24;nan;101450.78;5013855;28;20050;-85
2021/10/13 11:43:51;;;;;;;11.55;8.52;;;;;;;10.32;nan;101445.72;5012342;28;20042;-84
2021/10/13 11:46:18;;;;;;;11.82;8.45;;;;;;;10.33;nan;101450.91;5013257;28;20087;-84
2021/10/13 11:48:43;;;;;;;13.93;8.98;;;;;;;10.27;nan;101451.38;5025401;28;20045;-85
2021/10/13 11:51:16;;;;;;;12.27;8.60;;;;;;;10.19;nan;101437.97;5028943;28;20052;-86
2021/10/13 11:53:47;;;;;;;12.65;8.02;;;;;;;10.29;nan;101433.59;5031457;28;20387;-86
2021/10/13 11:56:13;;;;;;;10.57;7.65;;;;;;;10.31;nan;101433.50;5017421;28;20645;-86